Time;durP1;ratioP1;P1;durP2;ratioP2;P2;SDS_P1;SDS_P2;PMS_P1;PMS_P2;Temp;Humidity;BMP_temperature;BMP_pressure;BME280_temperature;BME280_humidity;BME280_pressure;Samples;Min_cycle;Max_cycle;Signal;HPM_P1;HPM_P2
2022/02/02 00:00:46;;;;;;;28.38;5.22;;;9.30;55.90;;;;;;5011773;28;20377;-72
2022/02/02 00:03:11;;;;;;;38.65;6.63;;;9.20;55.20;;;;;;5010326;28;20416;-74
2022/02/02 00:06:26;;;;;;;40.13;9.20;;;9.20;55.80;;;;;;5008373;28;20408;-73
2022/02/02 00:08:34;;;;;;;33.40;7.97;;;9.20;55.70;;;;;;5002374;28;20384;-72
2022/02/02 00:18:59;;;;;;;36.42;6.57;;;9.20;52.80;;;;;;5003420;28;20407;-73
2022/02/02 00:21:43;;;;;;;34.97;7.80;;;9.20;50.40;;;;;;5011557;28;20392;-73
2022/02/02 00:24:20;;;;;;;43.92;7.93;;;9.20;50.10;;;;;;5010606;28;20448;-74
2022/02/02 00:26:47;;;;;;;27.63;4.70;;;9.10;50.80;;;;;;5010298;28;20396;-74
2022/02/02 00:29:18;;;;;;;30.75;5.60;;;9.10;49.30;;;;;;5007300;28;20476;-73
2022/02/02 00:31:51;;;;;;;26.45;4.90;;;9.10;49.60;;;;;;5007757;28;20906;-74
2022/02/02 00:34:22;;;;;;;30.40;6.30;;;9.00;48.10;;;;;;5007637;28;20413;-74
2022/02/02 00:36:56;;;;;;;31.90;5.63;;;9.00;49.00;;;;;;4999695;28;20416;-75
2022/02/02 00:39:26;;;;;;;25.50;5.38;;;8.90;48.20;;;;;;5011075;28;20963;-73
2022/02/02 00:41:56;;;;;;;34.13;7.10;;;8.90;49.60;;;;;;5002882;28;20451;-75
2022/02/02 00:44:23;;;;;;;35.47;7.90;;;9.00;50.10;;;;;;5001247;28;20405;-75
2022/02/02 00:46:49;;;;;;;45.30;8.27;;;8.90;51.50;;;;;;5011917;28;20412;-74
2022/02/02 00:49:15;;;;;;;29.40;6.35;;;8.80;52.50;;;;;;5008454;28;20399;-74
2022/02/02 00:51:49;;;;;;;41.53;8.68;;;8.90;51.90;;;;;;5007169;28;20408;-74
2022/02/02 00:54:18;;;;;;;39.97;8.35;;;8.80;53.40;;;;;;4998941;28;20401;-73
2022/02/02 00:56:43;;;;;;;38.83;7.60;;;8.90;53.90;;;;;;4999659;28;20896;-73
2022/02/02 00:59:10;;;;;;;48.20;8.07;;;8.80;54.40;;;;;;4991514;28;20420;-73
2022/02/02 01:01:37;;;;;;;42.92;8.15;;;8.80;55.80;;;;;;4993113;28;20410;-73
2022/02/02 01:04:03;;;;;;;48.42;9.88;;;8.70;56.70;;;;;;4996878;28;20420;-74
2022/02/02 01:06:33;;;;;;;37.97;7.40;;;8.70;57.60;;;;;;4991065;28;20473;-72
2022/02/02 01:11:51;;;;;;;47.03;9.00;;;8.70;58.90;;;;;;4991279;28;20406;-72
2022/02/02 01:17:35;;;;;;;41.00;8.20;;;8.60;60.60;;;;;;4991418;28;20402;-74
2022/02/02 01:20:15;;;;;;;52.42;9.15;;;8.60;61.00;;;;;;5005447;28;20400;-73
2022/02/02 01:28:10;;;;;;;42.55;8.57;;;8.70;61.20;;;;;;5001978;28;20960;-73
2022/02/02 01:30:36;;;;;;;50.60;9.00;;;8.80;59.40;;;;;;5011032;28;20396;-73
2022/02/02 01:33:02;;;;;;;41.33;7.93;;;8.70;60.90;;;;;;5010925;28;20436;-72
2022/02/02 01:35:28;;;;;;;43.15;8.43;;;8.70;60.60;;;;;;5002880;28;20958;-73
2022/02/02 01:37:55;;;;;;;56.22;9.68;;;8.60;60.60;;;;;;4994448;28;20876;-73
2022/02/02 01:40:32;;;;;;;57.28;9.13;;;8.60;60.80;;;;;;4994732;28;20468;-73
2022/02/02 01:43:09;;;;;;;58.73;8.00;;;8.60;61.20;;;;;;4994888;28;20453;-73
2022/02/02 01:45:40;;;;;;;57.65;9.90;;;8.70;60.70;;;;;;5002195;28;20465;-74
2022/02/02 01:55:50;;;;;;;43.17;7.53;;;8.80;58.30;;;;;;5012715;28;20410;-73
2022/02/02 02:00:47;;;;;;;45.00;7.32;;;8.70;60.20;;;;;;5000180;28;20452;-72
2022/02/02 02:03:13;;;;;;;52.17;9.35;;;8.70;62.60;;;;;;5000231;28;20874;-73
2022/02/02 02:05:38;;;;;;;34.50;6.77;;;8.60;64.80;;;;;;5017833;28;20408;-73
2022/02/02 02:08:04;;;;;;;47.10;8.40;;;8.60;63.30;;;;;;5023931;28;20454;-73
2022/02/02 02:10:29;;;;;;;43.80;7.53;;;8.50;63.60;;;;;;5018113;28;20435;-73
2022/02/02 02:13:08;;;;;;;45.33;8.60;;;8.60;60.60;;;;;;5008542;28;20406;-73
2022/02/02 02:15:34;;;;;;;52.97;9.63;;;8.60;61.50;;;;;;5006567;28;20406;-72
2022/02/02 02:18:00;;;;;;;45.53;7.55;;;8.60;61.30;;;;;;5011110;28;20400;-72
2022/02/02 02:20:27;;;;;;;53.30;8.53;;;8.70;59.70;;;;;;5013159;28;20395;-72
2022/02/02 02:22:53;;;;;;;45.75;8.32;;;8.70;59.80;;;;;;5004230;28;20416;-72
2022/02/02 02:25:24;;;;;;;35.85;7.97;;;8.70;60.00;;;;;;5012801;28;20460;-73
2022/02/02 02:27:51;;;;;;;34.60;5.82;;;8.70;58.60;;;;;;5021804;28;20469;-73
2022/02/02 02:57:08;;;;;;;25.30;5.50;;;8.50;58.50;;;;;;5000211;28;20949;-72
2022/02/02 02:59:44;;;;;;;51.45;9.35;;;8.50;57.80;;;;;;4992365;28;20801;-73
2022/02/02 03:49:17;;;;;;;53.63;8.05;;;8.60;53.90;;;;;;5007583;28;20426;-73
2022/02/02 03:51:44;;;;;;;53.22;8.00;;;8.50;55.50;;;;;;5007901;28;20432;-73
2022/02/02 03:59:46;;;;;;;43.08;7.72;;;8.50;55.30;;;;;;4993228;28;20384;-72
2022/02/02 04:02:52;;;;;;;34.22;6.63;;;8.50;54.70;;;;;;5002567;28;20419;-74
2022/02/02 04:07:45;;;;;;;31.23;6.50;;;8.50;53.90;;;;;;4992073;28;20439;-73
2022/02/02 04:10:10;;;;;;;43.08;8.40;;;8.40;54.40;;;;;;4996257;28;20439;-72
2022/02/02 04:54:13;;;;;;;43.20;8.40;;;8.50;54.30;;;;;;5001835;28;20432;-76
2022/02/02 05:04:29;;;;;;;54.67;9.23;;;8.50;53.00;;;;;;5003140;28;20533;-74
2022/02/02 05:07:04;;;;;;;48.15;9.32;;;8.50;53.60;;;;;;5010907;28;20488;-74
2022/02/02 05:20:26;;;;;;;52.20;8.50;;;8.50;54.40;;;;;;4995803;28;20434;-74
2022/02/02 05:44:46;;;;;;;52.17;9.48;;;8.40;54.30;;;;;;4994453;28;20508;-75
2022/02/02 05:50:38;;;;;;;46.28;8.50;;;8.50;52.90;;;;;;4997390;28;20392;-75
2022/02/02 05:52:46;;;;;;;55.92;9.60;;;8.50;52.90;;;;;;4999915;28;20483;-76
2022/02/02 05:55:12;;;;;;;35.17;8.13;;;8.50;53.00;;;;;;5001233;28;20568;-76
2022/02/02 05:57:40;;;;;;;51.03;6.78;;;8.50;53.00;;;;;;5000461;28;20397;-75
2022/02/02 06:00:07;;;;;;;59.03;8.65;;;8.50;52.20;;;;;;4994532;28;20406;-76
2022/02/02 06:02:38;;;;;;;50.53;9.15;;;8.50;52.60;;;;;;4995598;28;20395;-75
2022/02/02 06:05:06;;;;;;;44.10;7.20;;;8.50;54.00;;;;;;4995828;28;20406;-75
2022/02/02 06:07:41;;;;;;;44.67;7.80;;;8.50;52.50;;;;;;4984476;28;20443;-75
2022/02/02 06:10:09;;;;;;;39.08;7.43;;;8.50;53.10;;;;;;5001683;28;20388;-75
2022/02/02 06:12:35;;;;;;;62.08;9.05;;;8.50;53.10;;;;;;5023351;28;20385;-76
2022/02/02 06:15:09;;;;;;;42.30;7.80;;;8.50;53.70;;;;;;5013050;28;20907;-76
2022/02/02 06:17:45;;;;;;;42.17;7.20;;;8.40;53.10;;;;;;5019819;28;20867;-76
2022/02/02 06:20:11;;;;;;;51.40;9.63;;;8.40;54.20;;;;;;5014279;28;20475;-75
2022/02/02 06:22:42;;;;;;;45.83;8.70;;;8.40;54.40;;;;;;5023900;28;20489;-77
2022/02/02 06:25:32;;;;;;;47.30;8.80;;;8.50;54.30;;;;;;5023982;28;20509;-76
2022/02/02 06:28:05;;;;;;;50.22;9.40;;;8.50;54.80;;;;;;5013710;28;20772;-76
2022/02/02 06:30:32;;;;;;;49.42;8.90;;;8.50;54.50;;;;;;5008628;28;20755;-76
2022/02/02 06:33:18;;;;;;;49.92;9.90;;;8.50;55.50;;;;;;4999468;28;20392;-76
2022/02/02 06:35:45;;;;;;;46.22;9.50;;;8.50;56.10;;;;;;5016009;28;20383;-77
2022/02/02 06:38:11;;;;;;;53.95;8.43;;;8.60;55.20;;;;;;5015228;28;20419;-77
2022/02/02 06:40:37;;;;;;;46.93;9.53;;;8.50;54.10;;;;;;5012641;28;20405;-78
2022/02/02 06:43:06;;;;;;;52.60;9.88;;;8.50;55.70;;;;;;5000826;28;20402;-76
2022/02/02 06:45:32;;;;;;;58.53;9.90;;;8.50;56.60;;;;;;5000830;28;20421;-76
2022/02/02 06:47:59;;;;;;;70.20;10.77;;;8.40;57.20;;;;;;4995803;28;20390;-76
2022/02/02 06:50:29;;;;;;;62.08;10.82;;;8.40;57.60;;;;;;4996049;28;20426;-75
2022/02/02 06:53:25;;;;;;;45.13;8.68;;;8.60;55.60;;;;;;5004364;28;20417;-77
2022/02/02 07:02:38;;;;;;;49.65;9.07;;;8.50;56.30;;;;;;4956136;29;20420;-76
2022/02/02 07:11:28;;;;;;;47.28;9.88;;;8.40;58.90;;;;;;4989543;28;20745;-75
2022/02/02 07:16:42;;;;;;;51.45;10.40;;;8.50;58.60;;;;;;5011525;28;20760;-76
2022/02/02 07:19:44;;;;;;;48.90;9.15;;;8.50;58.90;;;;;;4994334;28;20875;-76
2022/02/02 07:24:58;;;;;;;49.10;8.40;;;8.50;57.30;;;;;;4992063;28;20511;-76
2022/02/02 07:27:43;;;;;;;46.13;6.40;;;8.50;57.10;;;;;;5008497;28;20407;-77
2022/02/02 07:30:25;;;;;;;51.38;10.35;;;8.40;57.70;;;;;;5003485;28;20381;-75
2022/02/02 07:33:05;;;;;;;62.08;9.45;;;8.40;59.10;;;;;;5001922;28;20861;-77
2022/02/02 07:35:48;;;;;;;36.90;7.43;;;8.30;59.30;;;;;;4993185;28;20405;-75
2022/02/02 07:38:17;;;;;;;46.78;8.85;;;8.40;58.60;;;;;;5018044;28;20404;-77
2022/02/02 07:40:45;;;;;;;36.60;8.20;;;8.40;59.00;;;;;;5007598;28;20402;-76
2022/02/02 07:43:21;;;;;;;45.95;8.25;;;8.30;58.50;;;;;;5011046;28;20405;-76
2022/02/02 07:45:55;;;;;;;36.30;7.90;;;8.30;58.80;;;;;;5019564;28;20540;-75
2022/02/02 07:48:20;;;;;;;44.30;8.82;;;8.20;59.60;;;;;;5006591;28;20417;-75
2022/02/02 07:50:47;;;;;;;33.72;6.13;;;8.20;60.10;;;;;;5007430;28;20441;-76
2022/02/02 07:53:16;;;;;;;45.13;7.85;;;8.10;60.40;;;;;;5010822;28;20845;-77
2022/02/02 07:55:44;;;;;;;33.03;6.78;;;8.10;60.80;;;;;;5009632;28;20422;-77
2022/02/02 07:58:12;;;;;;;24.53;5.20;;;8.10;60.90;;;;;;4993333;28;20462;-76
2022/02/02 08:00:38;;;;;;;49.53;7.95;;;8.00;60.80;;;;;;4979270;28;20397;-76
2022/02/02 08:03:08;;;;;;;48.08;9.30;;;8.00;61.30;;;;;;4977662;28;20469;-74
2022/02/02 08:05:38;;;;;;;40.78;7.03;;;8.00;62.50;;;;;;5012661;28;20412;-74
2022/02/02 08:10:33;;;;;;;44.38;7.90;;;8.00;62.00;;;;;;4990139;28;20543;-75
2022/02/02 08:13:07;;;;;;;39.05;8.27;;;8.00;61.90;;;;;;4992080;28;20394;-75
2022/02/02 08:15:34;;;;;;;49.10;6.80;;;8.00;62.70;;;;;;5000218;28;20421;-73
2022/02/02 08:18:00;;;;;;;44.60;8.30;;;8.00;61.40;;;;;;4996403;28;20973;-77
2022/02/02 08:20:26;;;;;;;34.60;6.80;;;8.10;61.70;;;;;;4970322;28;20505;-74
2022/02/02 08:22:52;;;;;;;44.60;7.80;;;8.10;61.50;;;;;;5000255;28;20943;-74
2022/02/02 08:25:27;;;;;;;45.80;7.65;;;8.20;61.40;;;;;;4993031;28;20415;-79
2022/02/02 08:28:00;;;;;;;37.65;8.00;;;8.20;60.50;;;;;;5000538;28;20937;-78
2022/02/02 08:30:28;;;;;;;45.65;8.50;;;8.30;59.50;;;;;;4989369;28;20861;-77
2022/02/02 08:33:00;;;;;;;40.95;9.02;;;8.30;59.50;;;;;;4981262;28;20401;-78
2022/02/02 08:35:35;;;;;;;47.42;8.95;;;8.30;58.30;;;;;;5002695;28;20394;-80
2022/02/02 08:40:41;;;;;;;44.55;9.40;;;8.40;58.00;;;;;;5007314;28;20416;-80
2022/02/02 08:43:14;;;;;;;44.10;8.48;;;8.40;56.80;;;;;;4993624;28;20407;-78
2022/02/02 08:45:43;;;;;;;40.38;6.55;;;8.40;56.60;;;;;;5013510;28;20405;-79
2022/02/02 08:48:13;;;;;;;31.13;5.65;;;8.40;56.30;;;;;;5006562;28;20429;-78
2022/02/02 08:50:50;;;;;;;35.93;6.50;;;8.40;55.80;;;;;;5016352;28;20397;-81
2022/02/02 08:53:33;;;;;;;49.47;7.85;;;8.50;55.60;;;;;;4991259;28;20465;-79
2022/02/02 08:58:46;;;;;;;53.65;8.85;;;8.80;54.70;;;;;;5013061;28;20413;-79
2022/02/02 09:01:20;;;;;;;31.83;5.90;;;9.00;52.30;;;;;;5004328;28;20402;-79
2022/02/02 09:06:30;;;;;;;58.70;9.80;;;9.00;51.10;;;;;;5005794;28;20394;-79
2022/02/02 09:09:09;;;;;;;33.58;6.65;;;9.10;51.10;;;;;;5012454;28;20391;-79
2022/02/02 09:25:14;;;;;;;27.02;5.45;;;9.00;49.70;;;;;;5012437;28;20897;-78
2022/02/02 09:33:50;;;;;;;25.63;5.05;;;9.10;49.00;;;;;;5013245;28;20413;-75
2022/02/02 09:35:55;;;;;;;40.38;6.07;;;9.10;49.00;;;;;;5007450;28;20405;-79
2022/02/02 09:38:21;;;;;;;48.55;5.82;;;9.10;49.20;;;;;;5007664;28;20439;-75
2022/02/02 09:43:26;;;;;;;40.17;8.52;;;9.30;49.60;;;;;;4994010;28;20407;-77
2022/02/02 09:45:58;;;;;;;52.92;9.60;;;9.40;49.90;;;;;;4997802;28;20418;-76
2022/02/02 09:48:47;;;;;;;37.10;7.43;;;9.70;50.20;;;;;;4987209;28;20414;-77
2022/02/02 09:51:20;;;;;;;55.10;7.75;;;9.90;48.00;;;;;;4977763;28;20413;-76
2022/02/02 09:54:01;;;;;;;40.90;7.05;;;9.90;48.30;;;;;;5000015;28;20399;-75
2022/02/02 09:59:03;;;;;;;30.45;6.38;;;9.40;52.80;;;;;;4994565;28;20760;-76
2022/02/02 10:06:58;;;;;;;35.17;6.07;;;9.20;55.00;;;;;;5009910;28;20398;-77
2022/02/02 10:12:09;;;;;;;43.33;8.02;;;9.20;59.30;;;;;;5011012;28;20404;-76
2022/02/02 10:14:39;;;;;;;44.13;5.50;;;9.20;57.00;;;;;;4988046;28;20477;-76
2022/02/02 10:17:10;;;;;;;40.00;7.37;;;9.10;60.30;;;;;;4995911;28;20432;-76
2022/02/02 10:19:36;;;;;;;45.63;8.98;;;9.00;61.50;;;;;;4997148;28;20438;-77
2022/02/02 10:22:29;;;;;;;34.40;7.45;;;9.00;63.00;;;;;;5014942;28;20451;-77
2022/02/02 10:24:59;;;;;;;47.20;8.40;;;9.10;61.10;;;;;;5004234;28;20408;-76
2022/02/02 10:27:36;;;;;;;52.08;8.20;;;9.00;59.50;;;;;;4996900;28;20387;-75
2022/02/02 10:30:10;;;;;;;32.65;6.45;;;9.10;59.30;;;;;;4979590;28;20398;-76
2022/02/02 10:32:42;;;;;;;47.10;7.22;;;9.10;58.90;;;;;;5043888;22;20956;-77
2022/02/02 10:35:09;;;;;;;47.85;9.30;;;9.00;57.50;;;;;;5036973;28;20435;-76
2022/02/02 10:37:38;;;;;;;31.52;6.95;;;9.10;58.70;;;;;;5012491;28;20397;-77
2022/02/02 10:40:04;;;;;;;45.65;7.82;;;9.20;56.90;;;;;;5027951;28;20453;-76
2022/02/02 10:42:44;;;;;;;49.05;9.60;;;9.20;57.40;;;;;;5042597;28;20400;-76
2022/02/02 10:45:25;;;;;;;59.95;9.95;;;9.40;56.60;;;;;;5037209;28;20758;-77
2022/02/02 10:48:02;;;;;;;49.20;9.20;;;9.50;54.70;;;;;;5012563;28;20402;-77
2022/02/02 10:50:39;;;;;;;48.25;8.70;;;9.60;52.40;;;;;;5036773;28;20397;-77
2022/02/02 10:56:02;;;;;;;41.83;8.05;;;9.50;50.20;;;;;;5036535;28;20437;-77
2022/02/02 10:59:07;;;;;;;34.70;8.20;;;9.50;50.00;;;;;;5032569;28;20411;-76
2022/02/02 11:06:41;;;;;;;35.25;6.88;;;9.50;49.00;;;;;;5042970;28;20410;-73
2022/02/02 11:09:08;;;;;;;32.00;6.32;;;9.40;49.20;;;;;;5028954;28;20410;-76
2022/02/02 11:11:44;;;;;;;41.38;7.10;;;9.40;49.30;;;;;;5038268;28;20397;-77
2022/02/02 11:14:36;;;;;;;31.65;6.55;;;9.50;51.00;;;;;;5025623;28;20397;-78
2022/02/02 11:17:21;;;;;;;44.08;6.75;;;9.60;50.70;;;;;;5035327;28;20395;-77
2022/02/02 11:19:52;;;;;;;36.85;7.60;;;9.70;50.80;;;;;;5037904;28;20382;-76
2022/02/02 11:22:31;;;;;;;39.42;7.70;;;9.80;50.70;;;;;;5022586;28;20386;-78
2022/02/02 11:25:02;;;;;;;44.40;8.30;;;9.80;47.20;;;;;;5019033;28;20405;-83
2022/02/02 11:27:43;;;;;;;32.78;7.65;;;9.80;48.10;;;;;;5030041;28;20408;-78
2022/02/02 11:30:28;;;;;;;51.50;8.80;;;9.90;48.80;;;;;;5033905;28;20449;-77
2022/02/02 11:32:59;;;;;;;53.38;11.82;;;10.20;51.30;;;;;;5028126;28;20411;-76
2022/02/02 11:35:30;;;;;;;32.42;6.20;;;10.50;51.80;;;;;;5025096;28;20426;-77
2022/02/02 11:38:00;;;;;;;37.67;7.60;;;10.30;44.20;;;;;;5016678;28;20405;-76
2022/02/02 11:40:32;;;;;;;57.65;10.80;;;10.00;44.80;;;;;;5016681;28;20398;-77
2022/02/02 11:43:09;;;;;;;43.67;8.40;;;10.10;46.00;;;;;;5011048;28;20407;-78
2022/02/02 11:45:44;;;;;;;49.30;9.50;;;10.50;44.30;;;;;;5029038;28;20413;-77
2022/02/02 11:48:17;;;;;;;40.28;9.07;;;10.60;44.00;;;;;;5011235;28;20410;-76
2022/02/02 11:50:53;;;;;;;29.40;6.43;;;10.80;40.00;;;;;;5027034;28;21159;-77
2022/02/02 11:53:55;;;;;;;41.80;7.90;;;10.50;39.90;;;;;;5032919;28;20453;-77
2022/02/02 11:56:27;;;;;;;37.58;6.93;;;10.70;38.80;;;;;;4935596;29;20456;-79
2022/02/02 11:58:53;;;;;;;31.43;5.80;;;10.80;38.40;;;;;;5023940;28;20403;-78
2022/02/02 12:01:43;;;;;;;34.75;7.15;;;10.50;38.00;;;;;;5024758;28;20915;-79
2022/02/02 12:04:24;;;;;;;34.65;5.88;;;10.60;39.90;;;;;;5042835;28;20391;-78
2022/02/02 12:09:33;;;;;;;27.23;6.15;;;10.70;37.40;;;;;;5043394;28;20953;-80
2022/02/02 12:46:15;;;;;;;45.40;8.70;;;11.10;37.20;;;;;;5036904;28;20443;-78
2022/02/02 12:48:47;;;;;;;42.97;7.93;;;11.00;36.80;;;;;;5029896;28;20396;-77
2022/02/02 12:56:54;;;;;;;36.30;7.90;;;10.70;37.60;;;;;;5039181;28;20394;-77
2022/02/02 12:59:38;;;;;;;40.90;6.85;;;10.60;37.70;;;;;;5019507;28;20391;-77
2022/02/02 13:02:10;;;;;;;30.70;7.35;;;10.40;38.60;;;;;;5041548;28;20451;-76
2022/02/02 13:04:37;;;;;;;48.00;8.30;;;10.20;39.20;;;;;;5042803;28;20449;-77
2022/02/02 13:07:17;;;;;;;33.08;8.13;;;10.10;39.90;;;;;;5018423;28;20406;-78
2022/02/02 13:09:47;;;;;;;33.78;7.50;;;10.00;40.40;;;;;;5016526;28;20398;-79
2022/02/02 13:12:23;;;;;;;32.15;8.20;;;10.00;40.90;;;;;;5041758;28;20393;-78
2022/02/02 13:17:44;;;;;;;30.30;6.20;;;9.90;40.10;;;;;;5026979;28;20862;-77
2022/02/02 13:20:13;;;;;;;36.92;7.55;;;9.80;40.00;;;;;;5041071;28;20742;-78
2022/02/02 13:22:40;;;;;;;37.83;6.88;;;9.90;40.50;;;;;;5042654;28;20427;-79
2022/02/02 13:25:18;;;;;;;34.75;7.10;;;10.00;39.90;;;;;;5039897;28;20478;-77
2022/02/02 13:27:47;;;;;;;34.25;6.38;;;10.00;39.90;;;;;;5045234;28;20409;-79
2022/02/02 13:30:49;;;;;;;21.10;5.43;;;10.10;38.40;;;;;;5055051;28;20470;-79
2022/02/02 13:33:27;;;;;;;22.65;4.40;;;10.10;37.80;;;;;;5044185;28;20409;-78
2022/02/02 13:36:25;;;;;;;23.15;5.50;;;10.10;36.30;;;;;;5019963;28;20393;-78
2022/02/02 13:39:23;;;;;;;24.23;5.20;;;10.20;36.00;;;;;;5026874;28;20561;-78
2022/02/02 13:45:09;;;;;;;20.15;4.80;;;10.20;36.40;;;;;;5052640;28;20421;-78
2022/02/02 13:53:23;;;;;;;28.83;6.47;;;10.20;36.10;;;;;;5034052;28;20456;-78
2022/02/02 13:56:10;;;;;;;24.98;4.95;;;10.20;36.10;;;;;;5026278;28;20429;-80
2022/02/02 14:01:36;;;;;;;17.42;3.33;;;10.00;36.00;;;;;;5036866;28;20409;-78
2022/02/02 14:33:28;;;;;;;15.77;3.42;;;10.90;30.30;;;;;;5039652;28;20391;-79
2022/02/02 14:35:59;;;;;;;19.00;4.00;;;10.90;30.00;;;;;;5061171;28;20865;-79
2022/02/02 14:38:28;;;;;;;17.17;3.70;;;11.10;30.10;;;;;;5042186;28;20730;-77
2022/02/02 14:43:28;;;;;;;16.83;3.97;;;11.00;29.20;;;;;;5043604;28;20405;-79
2022/02/02 14:45:57;;;;;;;16.25;3.97;;;11.00;29.50;;;;;;5045172;28;20414;-79
2022/02/02 14:48:37;;;;;;;23.50;4.28;;;11.20;29.30;;;;;;5045507;28;20387;-79
2022/02/02 14:51:17;;;;;;;16.63;4.50;;;11.30;29.60;;;;;;5034913;28;20928;-79
2022/02/02 14:53:58;;;;;;;21.50;4.40;;;11.30;28.60;;;;;;5022605;28;21049;-79
2022/02/02 15:05:15;;;;;;;32.63;4.90;;;11.20;28.90;;;;;;5040265;28;20545;-79
2022/02/02 15:24:32;;;;;;;29.55;8.40;;;12.10;26.50;;;;;;5044502;28;20780;-80
2022/02/02 15:32:17;;;;;;;17.17;5.00;;;11.40;27.60;;;;;;5044244;28;20411;-79
2022/02/02 15:34:56;;;;;;;25.83;5.40;;;11.30;28.00;;;;;;5027188;28;20413;-79
2022/02/02 15:39:59;;;;;;;24.38;5.45;;;10.90;28.40;;;;;;5045167;28;20383;-79
2022/02/02 15:58:35;;;;;;;24.02;5.13;;;10.00;32.70;;;;;;5038907;28;20450;-80
2022/02/02 16:03:38;;;;;;;29.80;7.07;;;9.90;33.60;;;;;;5049020;28;20400;-79
2022/02/02 16:06:13;;;;;;;29.00;7.18;;;9.80;34.50;;;;;;5052680;28;20648;-78
2022/02/02 16:08:40;;;;;;;23.85;6.70;;;9.70;35.40;;;;;;5036694;28;20394;-79
2022/02/02 16:19:00;;;;;;;29.90;6.80;;;9.10;39.00;;;;;;5042117;28;20412;-80
2022/02/02 16:38:05;;;;;;;31.98;6.40;;;8.90;44.30;;;;;;5046313;28;20404;-79
2022/02/02 16:40:35;;;;;;;33.17;6.50;;;8.90;44.70;;;;;;5051345;28;20411;-78
2022/02/02 16:45:36;;;;;;;32.78;7.78;;;8.60;46.80;;;;;;5060312;28;20439;-79
2022/02/02 16:48:03;;;;;;;34.37;7.00;;;8.60;47.90;;;;;;5052060;28;20395;-78
2022/02/02 16:50:33;;;;;;;32.55;7.55;;;8.50;48.30;;;;;;5053943;28;20410;-78
2022/02/02 16:53:04;;;;;;;30.48;7.57;;;8.50;48.10;;;;;;5045871;28;20399;-78
2022/02/02 17:33:21;;;;;;;38.50;8.40;;;8.10;55.30;;;;;;5056049;28;20394;-79
2022/02/02 17:38:26;;;;;;;33.63;8.70;;;7.90;57.80;;;;;;5049597;28;20431;-79
2022/02/02 17:43:50;;;;;;;37.08;9.25;;;8.00;58.10;;;;;;5049433;28;20481;-79
2022/02/02 18:21:10;;;;;;;32.08;9.88;;;7.70;65.50;;;;;;5058607;28;20390;-81
2022/02/02 18:23:49;;;;;;;37.17;10.48;;;7.60;66.50;;;;;;5056546;28;20399;-80
2022/02/02 18:26:25;;;;;;;38.47;10.68;;;7.70;66.80;;;;;;5067335;28;20417;-79
2022/02/02 18:29:15;;;;;;;38.00;10.57;;;7.80;66.00;;;;;;5068607;28;20381;-80
2022/02/02 18:45:08;;;;;;;26.52;9.70;;;8.10;63.90;;;;;;5051218;28;20764;-78
2022/02/02 18:55:54;;;;;;;44.22;11.30;;;8.40;61.60;;;;;;5046409;28;20422;-79
2022/02/02 18:58:05;;;;;;;32.80;10.43;;;8.50;61.50;;;;;;5041035;28;20986;-79
2022/02/02 20:11:27;;;;;;;40.33;17.30;;;9.30;75.40;;;;;;5044308;28;20884;-77
2022/02/02 20:13:53;;;;;;;39.33;17.87;;;9.30;76.10;;;;;;5041316;28;20625;-80
2022/02/02 20:16:18;;;;;;;39.60;17.37;;;9.30;76.00;;;;;;5018004;28;20484;-78
2022/02/02 20:18:45;;;;;;;26.27;16.20;;;9.30;75.80;;;;;;5039706;28;20940;-78
2022/02/02 20:21:12;;;;;;;34.42;18.25;;;9.40;76.50;;;;;;5040764;28;20399;-78
2022/02/02 20:23:43;;;;;;;41.72;19.38;;;9.20;76.60;;;;;;5033226;28;20894;-78
2022/02/02 20:26:15;;;;;;;37.17;18.30;;;9.30;77.40;;;;;;5030012;28;20930;-78
2022/02/02 20:29:02;;;;;;;34.33;17.27;;;9.30;77.60;;;;;;5034838;28;20480;-78
2022/02/02 20:31:29;;;;;;;32.20;17.50;;;9.30;76.70;;;;;;5037895;28;20400;-78
2022/02/02 20:33:55;;;;;;;35.13;17.80;;;9.50;75.70;;;;;;5038661;28;20825;-78
2022/02/02 20:36:21;;;;;;;35.77;18.43;;;9.50;75.40;;;;;;5042128;28;20399;-77
2022/02/02 20:38:47;;;;;;;40.90;19.30;;;9.60;76.10;;;;;;5035043;28;20422;-79
2022/02/02 20:41:13;;;;;;;41.50;20.85;;;9.50;78.30;;;;;;5036541;28;20760;-77
2022/02/02 20:43:58;;;;;;;40.17;20.03;;;9.40;81.10;;;;;;5022599;28;20417;-79
2022/02/02 20:47:04;;;;;;;47.08;21.52;;;9.20;83.50;;;;;;5051574;28;20408;-79
2022/02/02 21:00:52;;;;;;;43.22;22.73;;;9.00;92.90;;;;;;5044543;28;20434;-79
2022/02/02 21:03:37;;;;;;;43.45;24.05;;;9.10;92.70;;;;;;5041896;28;20764;-79
2022/02/02 21:06:27;;;;;;;37.70;20.90;;;9.10;91.00;;;;;;5046705;28;20418;-78
2022/02/02 21:14:15;;;;;;;44.28;22.33;;;9.30;86.20;;;;;;5026564;28;20395;-78
2022/02/02 21:16:44;;;;;;;40.38;22.10;;;9.30;85.90;;;;;;5040207;28;20399;-78
2022/02/02 21:19:21;;;;;;;41.47;22.90;;;9.30;87.50;;;;;;5044959;28;20417;-77
2022/02/02 21:21:52;;;;;;;42.25;23.92;;;9.30;88.00;;;;;;5059695;28;20397;-77
2022/02/02 21:29:21;;;;;;;53.25;25.23;;;9.50;83.70;;;;;;5054954;28;20495;-79
2022/02/02 21:31:47;;;;;;;47.27;24.90;;;9.50;84.20;;;;;;5038129;28;20521;-79
2022/02/02 21:34:13;;;;;;;47.47;26.23;;;9.60;84.00;;;;;;5021323;28;20441;-79
2022/02/02 21:36:39;;;;;;;49.75;26.65;;;9.50;84.00;;;;;;5020557;28;20763;-78
2022/02/02 21:39:07;;;;;;;46.35;25.17;;;9.50;84.20;;;;;;5019840;28;20407;-78
2022/02/02 21:41:36;;;;;;;51.13;26.20;;;9.60;82.80;;;;;;5030192;28;20417;-78
2022/02/02 21:44:04;;;;;;;50.28;27.23;;;9.60;83.20;;;;;;5040781;28;20876;-78
2022/02/02 21:46:29;;;;;;;54.08;28.00;;;9.60;84.20;;;;;;5039710;28;20417;-77
2022/02/02 21:48:57;;;;;;;46.97;26.30;;;9.50;86.10;;;;;;5024712;28;20399;-79
2022/02/02 21:51:33;;;;;;;48.25;26.38;;;9.60;86.90;;;;;;5042004;28;20398;-77
2022/02/02 21:53:59;;;;;;;53.85;28.08;;;9.50;88.30;;;;;;5042154;28;20395;-78
2022/02/02 21:56:24;;;;;;;49.50;27.70;;;9.50;90.70;;;;;;5042261;28;20391;-78
2022/02/02 21:58:50;;;;;;;60.35;29.63;;;9.50;90.90;;;;;;5056858;28;20386;-79
2022/02/02 22:01:16;;;;;;;59.53;29.40;;;9.40;91.60;;;;;;5046097;28;20463;-78
2022/02/02 22:03:42;;;;;;;54.67;29.38;;;9.40;93.20;;;;;;5045474;28;20395;-81
2022/02/02 22:06:08;;;;;;;58.08;31.08;;;9.40;93.50;;;;;;5025533;28;20415;-78
2022/02/02 22:08:33;;;;;;;56.53;30.15;;;9.50;93.40;;;;;;5040182;28;20455;-78
2022/02/02 22:10:59;;;;;;;56.85;30.40;;;9.50;93.20;;;;;;5021815;28;20444;-78
2022/02/02 22:13:35;;;;;;;58.22;30.23;;;9.50;94.30;;;;;;5037368;28;20425;-78
2022/02/02 22:16:06;;;;;;;57.30;31.02;;;9.50;94.70;;;;;;5043632;28;20401;-79
2022/02/02 22:18:34;;;;;;;56.17;31.08;;;9.40;96.30;;;;;;5036692;28;20407;-79
2022/02/02 22:21:00;;;;;;;62.75;30.92;;;9.50;95.40;;;;;;5053085;28;20410;-78
2022/02/02 22:23:26;;;;;;;65.60;32.30;;;9.50;95.40;;;;;;5055632;28;20401;-78
2022/02/02 22:25:52;;;;;;;56.72;32.25;;;9.40;96.60;;;;;;5036252;28;20428;-78
2022/02/02 22:28:18;;;;;;;60.65;31.20;;;9.40;98.50;;;;;;5057344;28;20760;-77
2022/02/02 22:30:44;;;;;;;60.70;30.47;;;9.40;99.50;;;;;;5016186;28;20387;-79
2022/02/02 22:33:09;;;;;;;56.87;30.00;;;9.50;99.90;;;;;;5040834;28;20399;-79
2022/02/02 22:35:35;;;;;;;57.60;30.93;;;9.50;99.90;;;;;;5038161;28;20391;-79
2022/02/02 22:38:00;;;;;;;59.30;31.10;;;9.50;99.90;;;;;;5027032;28;20393;-79
2022/02/02 22:40:27;;;;;;;57.90;31.47;;;9.40;99.90;;;;;;5044619;28;20397;-79
2022/02/02 22:42:53;;;;;;;60.90;31.30;;;9.40;99.90;;;;;;5028467;28;20496;-77
2022/02/02 22:45:19;;;;;;;58.13;30.15;;;9.50;99.90;;;;;;5041259;28;20893;-76
2022/02/02 22:47:47;;;;;;;65.22;32.67;;;9.40;99.90;;;;;;5040014;28;20402;-78
2022/02/02 22:50:14;;;;;;;63.67;32.03;;;9.40;99.90;;;;;;5018460;28;20472;-77
2022/02/02 22:52:42;;;;;;;57.00;29.42;;;9.30;99.90;;;;;;5044165;28;20383;-83
2022/02/02 22:55:13;;;;;;;55.03;29.23;;;9.40;99.90;;;;;;5050422;28;20456;-75
2022/02/02 22:57:39;;;;;;;60.25;30.83;;;9.40;99.90;;;;;;5053220;28;20393;-75
2022/02/02 23:00:09;;;;;;;56.60;29.50;;;9.30;99.90;;;;;;5052806;28;20464;-76
2022/02/02 23:05:07;;;;;;;56.47;29.00;;;9.40;99.90;;;;;;5022799;28;20435;-79
2022/02/02 23:07:33;;;;;;;58.22;29.52;;;9.40;99.90;;;;;;5034638;28;20383;-77
2022/02/02 23:09:59;;;;;;;55.33;28.48;;;9.50;99.90;;;;;;5053349;28;20379;-76
2022/02/02 23:12:26;;;;;;;54.15;29.63;;;9.50;99.90;;;;;;5052806;28;20414;-78
2022/02/02 23:14:53;;;;;;;54.13;27.70;;;9.50;99.90;;;;;;5054395;28;20424;-76
2022/02/02 23:17:20;;;;;;;51.20;26.63;;;9.50;99.90;;;;;;5036902;28;20401;-77
2022/02/02 23:19:49;;;;;;;50.58;27.55;;;9.50;99.90;;;;;;5038111;28;20419;-76
2022/02/02 23:22:17;;;;;;;55.08;29.35;;;9.60;99.90;;;;;;5022136;28;20401;-77
2022/02/02 23:24:48;;;;;;;54.45;28.40;;;9.60;99.90;;;;;;5018405;28;20393;-76
2022/02/02 23:27:14;;;;;;;51.97;27.50;;;9.60;99.90;;;;;;5018012;28;20371;-75
2022/02/02 23:29:45;;;;;;;59.85;29.60;;;9.60;99.90;;;;;;5034518;28;20397;-76
2022/02/02 23:32:11;;;;;;;56.47;29.35;;;9.50;99.90;;;;;;5017114;28;20404;-76
2022/02/02 23:34:38;;;;;;;53.60;28.63;;;9.60;99.90;;;;;;5031854;28;20400;-76